createdAt,value
2022-12-18T00:01:24.346Z,7.06
2022-12-18T00:03:53.074Z,6.94
2022-12-18T00:06:21.268Z,6.85
2022-12-18T00:08:49.193Z,6.97
2022-12-18T00:11:20.087Z,6.77
2022-12-18T00:13:47.750Z,7.03
2022-12-18T00:16:17.818Z,6.91
2022-12-18T00:18:45.045Z,6.80
2022-12-18T00:21:13.652Z,6.83
2022-12-18T00:23:43.295Z,6.52
2022-12-18T00:26:16.694Z,6.58
2022-12-18T00:28:44.644Z,6.68
2022-12-18T00:31:13.901Z,6.54
2022-12-18T00:33:41.413Z,6.54
2022-12-18T00:36:17.056Z,6.37
2022-12-18T00:38:45.338Z,6.32
2022-12-18T00:41:13.787Z,6.51
2022-12-18T00:43:41.367Z,6.50
2022-12-18T00:46:08.743Z,6.34
2022-12-18T00:48:36.731Z,6.49
2022-12-18T00:51:03.852Z,6.51
2022-12-18T00:53:30.975Z,6.43
2022-12-18T00:55:58.075Z,6.30
2022-12-18T00:58:25.142Z,6.43
2022-12-18T01:00:52.408Z,6.28
2022-12-18T01:03:19.370Z,6.20
2022-12-18T01:05:46.383Z,6.05
2022-12-18T01:08:13.508Z,6.09
2022-12-18T01:10:43.584Z,6.07
2022-12-18T01:13:10.646Z,6.07
2022-12-18T01:15:37.700Z,6.11
2022-12-18T01:18:06.870Z,5.94
2022-12-18T01:20:34.015Z,5.72
2022-12-18T01:23:01.234Z,5.51
2022-12-18T01:25:28.292Z,5.64
2022-12-18T01:27:55.276Z,5.57
2022-12-18T01:30:22.219Z,5.56
2022-12-18T01:32:49.117Z,5.61
2022-12-18T01:35:18.841Z,5.72
2022-12-18T01:37:47.333Z,5.66
2022-12-18T01:40:14.312Z,5.59
2022-12-18T01:42:41.560Z,5.57
2022-12-18T01:45:17.549Z,5.61
2022-12-18T01:47:54.192Z,5.41
2022-12-18T01:50:23.453Z,5.60
2022-12-18T01:52:57.451Z,5.59
2022-12-18T01:55:29.019Z,5.49
2022-12-18T01:57:58.531Z,5.40
2022-12-18T02:00:25.859Z,5.41
2022-12-18T02:02:53.742Z,5.21
2022-12-18T02:05:30.887Z,5.20
2022-12-18T02:08:24.566Z,5.26
2022-12-18T02:11:19.879Z,5.31
2022-12-18T02:13:59.188Z,5.50
2022-12-18T02:16:34.922Z,5.45
2022-12-18T02:19:26.237Z,5.47
2022-12-18T02:21:56.185Z,5.38
2022-12-18T02:24:44.134Z,5.27
2022-12-18T02:27:12.850Z,5.22
2022-12-18T02:29:58.341Z,5.32
2022-12-18T02:32:32.933Z,5.42
2022-12-18T02:35:02.275Z,5.19
2022-12-18T02:37:32.451Z,5.24
2022-12-18T02:40:04.839Z,5.24
2022-12-18T02:42:33.727Z,5.16
2022-12-18T02:45:02.148Z,5.34
2022-12-18T02:47:39.257Z,5.27
2022-12-18T02:50:16.513Z,5.42
2022-12-18T02:53:05.979Z,5.31
2022-12-18T02:55:33.670Z,5.27
2022-12-18T02:58:21.984Z,5.16
2022-12-18T03:01:19.716Z,5.25
2022-12-18T03:03:58.534Z,5.06
2022-12-18T03:06:38.307Z,5.27
2022-12-18T03:09:18.733Z,5.17
2022-12-18T03:12:10.610Z,5.09
2022-12-18T03:14:39.640Z,5.06
2022-12-18T03:17:13.485Z,4.78
2022-12-18T03:19:42.453Z,4.97
2022-12-18T03:22:11.173Z,4.98
2022-12-18T03:24:47.392Z,4.90
2022-12-18T03:27:19.320Z,4.70
2022-12-18T03:29:54.388Z,5.07
2022-12-18T03:32:30.604Z,4.81
2022-12-18T03:35:03.748Z,5.07
2022-12-18T03:37:34.122Z,5.10
2022-12-18T03:40:01.360Z,5.17
2022-12-18T03:42:38.093Z,5.07
2022-12-18T03:45:34.163Z,5.20
2022-12-18T03:48:24.519Z,4.86
2022-12-18T03:50:51.259Z,5.11
2022-12-18T03:53:27.455Z,4.92
2022-12-18T03:55:56.212Z,5.08
2022-12-18T03:58:30.014Z,5.17
2022-12-18T04:01:10.151Z,5.17
2022-12-18T04:03:39.459Z,5.19
2022-12-18T04:06:08.757Z,5.26
2022-12-18T04:08:36.194Z,5.19
2022-12-18T04:11:07.013Z,5.10
2022-12-18T04:13:39.898Z,5.19
2022-12-18T04:16:12.185Z,4.76
2022-12-18T04:18:42.602Z,4.72
2022-12-18T04:21:11.220Z,4.88
2022-12-18T04:23:38.881Z,4.89
2022-12-18T04:26:07.649Z,4.85
2022-12-18T04:28:50.004Z,4.67
2022-12-18T04:31:17.057Z,4.67
2022-12-18T04:33:44.181Z,4.84
2022-12-18T04:36:13.357Z,4.90
2022-12-18T04:38:41.482Z,4.99
2022-12-18T04:41:13.816Z,4.93
2022-12-18T04:43:42.765Z,4.92
2022-12-18T04:46:10.617Z,4.81
2022-12-18T04:48:38.299Z,4.47
2022-12-18T04:51:08.522Z,4.53
2022-12-18T04:53:35.741Z,4.45
2022-12-18T04:56:08.244Z,4.54
2022-12-18T04:58:35.504Z,4.42
2022-12-18T05:01:02.998Z,4.40
2022-12-18T05:03:30.602Z,4.26
2022-12-18T05:05:57.661Z,4.35
2022-12-18T05:08:24.722Z,4.19
2022-12-18T05:11:00.214Z,4.36
2022-12-18T05:13:27.825Z,4.32
2022-12-18T05:15:55.805Z,4.32
2022-12-18T05:18:27.218Z,4.28
2022-12-18T05:20:54.840Z,4.04
2022-12-18T05:23:23.657Z,4.12
2022-12-18T05:26:01.652Z,4.23
2022-12-18T05:28:30.456Z,4.33
2022-12-18T05:30:59.853Z,4.30
2022-12-18T05:33:27.902Z,4.25
2022-12-18T05:35:59.790Z,4.25
2022-12-18T05:38:28.817Z,4.16
2022-12-18T05:40:55.784Z,4.21
2022-12-18T05:43:26.208Z,4.29
2022-12-18T05:45:54.321Z,4.33
2022-12-18T05:48:22.082Z,4.18
2022-12-18T05:50:52.687Z,4.10
2022-12-18T05:53:21.390Z,4.02
2022-12-18T05:55:48.939Z,4.10
2022-12-18T05:58:16.917Z,3.92
2022-12-18T06:00:46.898Z,3.97
2022-12-18T06:03:14.739Z,4.14
2022-12-18T06:05:44.465Z,4.18
2022-12-18T06:08:11.924Z,4.29
2022-12-18T06:10:38.929Z,4.28
2022-12-18T06:13:06.766Z,4.32
2022-12-18T06:15:34.578Z,4.30
2022-12-18T06:18:02.478Z,4.24
2022-12-18T06:20:33.386Z,4.15
2022-12-18T06:23:01.186Z,4.20
2022-12-18T06:25:28.296Z,4.15
2022-12-18T06:27:55.601Z,4.14
2022-12-18T06:30:22.864Z,4.13
2022-12-18T06:32:56.294Z,4.20
2022-12-18T06:35:24.373Z,4.12
2022-12-18T06:37:51.840Z,4.09
2022-12-18T06:40:19.541Z,4.11
2022-12-18T06:42:46.471Z,4.04
2022-12-18T06:45:16.546Z,4.04
2022-12-18T06:47:43.679Z,4.07
2022-12-18T06:50:11.025Z,3.91
2022-12-18T06:52:38.196Z,4.07
2022-12-18T06:55:06.141Z,4.18
2022-12-18T06:57:36.466Z,4.12
2022-12-18T07:00:05.450Z,4.06
2022-12-18T07:02:33.173Z,4.09
2022-12-18T07:05:00.181Z,4.09
2022-12-18T07:07:27.258Z,4.43
2022-12-18T07:09:54.300Z,4.15
2022-12-18T07:12:21.275Z,4.42
2022-12-18T07:14:48.201Z,4.44
2022-12-18T07:17:15.173Z,4.28
2022-12-18T07:19:42.213Z,4.36
2022-12-18T07:22:09.722Z,4.41
2022-12-18T07:24:37.101Z,3.27
2022-12-18T07:27:04.352Z,4.35
2022-12-18T07:29:31.932Z,4.20
2022-12-18T07:31:58.889Z,4.20
2022-12-18T07:34:25.895Z,4.10
2022-12-18T07:36:53.162Z,4.10
2022-12-18T07:39:20.141Z,3.95
2022-12-18T07:42:07.337Z,4.05
2022-12-18T07:44:34.561Z,4.02
2022-12-18T07:47:09.007Z,4.01
2022-12-18T07:49:38.938Z,3.87
2022-12-18T07:52:06.022Z,4.04
2022-12-18T07:54:32.998Z,4.07
2022-12-18T07:57:00.923Z,3.65
2022-12-18T07:59:27.858Z,4.07
2022-12-18T08:01:55.021Z,3.95
2022-12-18T08:04:22.015Z,3.81
2022-12-18T08:06:49.312Z,3.70
2022-12-18T08:09:16.323Z,3.65
2022-12-18T08:11:43.661Z,3.90
2022-12-18T08:14:10.915Z,3.72
2022-12-18T08:16:38.047Z,3.92
2022-12-18T08:19:05.065Z,3.93
2022-12-18T08:21:33.009Z,3.88
2022-12-18T08:24:01.922Z,4.08
2022-12-18T08:26:31.327Z,4.13
2022-12-18T08:29:00.610Z,3.85
2022-12-18T08:31:28.857Z,4.02
2022-12-18T08:33:56.807Z,4.01
2022-12-18T08:36:27.417Z,3.96
2022-12-18T08:38:55.020Z,3.95
2022-12-18T08:41:22.594Z,3.80
2022-12-18T08:44:09.101Z,3.92
2022-12-18T08:46:39.185Z,3.86
2022-12-18T08:49:08.107Z,3.86
2022-12-18T08:51:35.677Z,3.84
2022-12-18T08:54:03.438Z,3.96
2022-12-18T08:56:32.092Z,4.03
2022-12-18T08:59:00.431Z,4.01
2022-12-18T09:01:39.629Z,4.13
2022-12-18T09:04:07.057Z,3.92
2022-12-18T09:06:35.239Z,4.15
2022-12-18T09:09:04.436Z,4.28
2022-12-18T09:11:35.999Z,4.40
2022-12-18T09:14:03.053Z,4.15
2022-12-18T09:16:32.723Z,4.53
2022-12-18T09:19:41.797Z,4.49
2022-12-18T09:22:10.698Z,4.30
2022-12-18T09:24:37.743Z,4.24
2022-12-18T09:27:04.889Z,4.30
2022-12-18T09:29:32.057Z,4.50
2022-12-18T09:32:09.718Z,4.35
2022-12-18T09:34:37.291Z,4.47
2022-12-18T09:37:04.175Z,4.37
2022-12-18T09:39:31.122Z,4.43
2022-12-18T09:41:59.973Z,4.33
2022-12-18T09:44:32.165Z,4.42
2022-12-18T09:47:24.495Z,4.39
2022-12-18T09:49:55.857Z,4.47
2022-12-18T09:52:57.547Z,4.59
2022-12-18T09:55:41.658Z,4.77
2022-12-18T09:58:26.575Z,4.77
2022-12-18T10:00:55.413Z,4.78
2022-12-18T10:03:22.857Z,4.71
2022-12-18T10:06:08.883Z,4.84
2022-12-18T10:08:54.503Z,4.81
2022-12-18T10:11:35.929Z,4.87
2022-12-18T10:14:42.473Z,4.85
2022-12-18T10:17:34.498Z,4.99
2022-12-18T10:20:26.578Z,4.84
2022-12-18T10:23:17.931Z,4.74
2022-12-18T10:25:56.979Z,4.86
2022-12-18T10:28:24.774Z,4.85
2022-12-18T10:30:51.735Z,4.79
2022-12-18T10:33:22.696Z,4.93
2022-12-18T10:35:53.862Z,5.05
2022-12-18T10:38:23.918Z,5.08
2022-12-18T10:41:00.626Z,5.14
2022-12-18T10:43:39.812Z,5.02
2022-12-18T10:46:10.027Z,5.07
2022-12-18T10:48:53.087Z,5.09
2022-12-18T10:51:31.688Z,4.75
2022-12-18T10:54:14.493Z,4.91
2022-12-18T10:56:42.556Z,4.73
2022-12-18T10:59:14.553Z,5.01
2022-12-18T11:01:56.581Z,5.21
2022-12-18T11:04:27.248Z,5.29
2022-12-18T11:07:06.644Z,5.22
2022-12-18T11:09:37.958Z,5.29
2022-12-18T11:12:16.854Z,5.12
2022-12-18T11:14:48.268Z,5.07
2022-12-18T11:17:36.553Z,4.90
2022-12-18T11:20:10.667Z,4.63
2022-12-18T11:22:39.522Z,4.67
2022-12-18T11:25:35.621Z,4.81
2022-12-18T11:28:44.226Z,4.76
2022-12-18T11:31:23.349Z,4.88
2022-12-18T11:34:27.329Z,4.82
2022-12-18T11:36:47.808Z,4.90
2022-12-18T11:39:44.038Z,4.91
2022-12-18T11:42:36.857Z,5.05
2022-12-18T11:45:30.173Z,5.24
2022-12-18T11:48:13.862Z,5.40
2022-12-18T11:51:01.466Z,5.34
2022-12-18T11:53:31.478Z,5.14
2022-12-18T11:56:03.755Z,5.14
2022-12-18T11:58:40.338Z,5.24
2022-12-18T12:01:15.459Z,5.08
2022-12-18T12:04:16.119Z,5.00
2022-12-18T12:07:15.995Z,5.14
2022-12-18T12:10:08.931Z,5.20
2022-12-18T12:12:52.477Z,5.09
2022-12-18T12:15:38.901Z,5.27
2022-12-18T12:18:21.320Z,5.20
2022-12-18T12:21:42.175Z,5.27
2022-12-18T12:24:43.261Z,5.10
2022-12-18T12:27:28.373Z,4.99
2022-12-18T12:30:14.171Z,5.10
2022-12-18T12:33:11.514Z,4.94
2022-12-18T12:35:41.829Z,5.10
2022-12-18T12:38:15.847Z,5.17
2022-12-18T12:40:55.272Z,5.35
2022-12-18T12:43:49.391Z,5.39
2022-12-18T12:46:22.379Z,5.50
2022-12-18T12:49:08.849Z,5.44
2022-12-18T12:52:06.553Z,5.44
2022-12-18T12:54:34.907Z,5.42
2022-12-18T12:57:11.245Z,5.35
2022-12-18T12:59:52.200Z,5.34
2022-12-18T13:02:24.207Z,5.41
2022-12-18T13:05:14.771Z,5.43
2022-12-18T13:08:01.896Z,5.40
2022-12-18T13:10:38.851Z,5.50
2022-12-18T13:13:11.095Z,5.51
2022-12-18T13:15:46.261Z,5.49
2022-12-18T13:18:54.291Z,5.39
2022-12-18T13:21:28.370Z,5.47
2022-12-18T13:23:56.761Z,5.44
2022-12-18T13:26:28.764Z,5.50
2022-12-18T13:28:57.632Z,5.25
2022-12-18T13:31:24.896Z,5.28
2022-12-18T13:34:26.158Z,5.08
2022-12-18T13:36:56.598Z,5.16
2022-12-18T13:39:32.784Z,5.20
2022-12-18T13:42:07.887Z,5.28
2022-12-18T13:44:46.326Z,5.34
2022-12-18T13:47:34.726Z,5.21
2022-12-18T13:50:11.019Z,5.06
2022-12-18T13:52:40.765Z,5.12
2022-12-18T13:55:19.114Z,5.04
2022-12-18T13:57:47.122Z,5.07
2022-12-18T14:00:25.795Z,5.31
2022-12-18T14:02:53.579Z,5.29
2022-12-18T14:05:37.196Z,5.34
2022-12-18T14:08:15.999Z,5.30
2022-12-18T14:10:48.657Z,5.42
2022-12-18T14:13:29.506Z,5.36
2022-12-18T14:15:57.444Z,5.32
2022-12-18T14:18:32.017Z,5.54
2022-12-18T14:21:34.346Z,5.50
2022-12-18T14:24:23.285Z,5.47
2022-12-18T14:26:51.740Z,5.40
2022-12-18T14:29:27.600Z,5.38
2022-12-18T14:32:16.515Z,5.20
2022-12-18T14:34:51.424Z,5.14
2022-12-18T14:37:25.475Z,5.24
2022-12-18T14:40:11.483Z,5.06
2022-12-18T14:42:39.959Z,4.78
2022-12-18T14:45:41.073Z,5.14
2022-12-18T14:48:42.640Z,5.21
2022-12-18T14:51:24.825Z,5.09
2022-12-18T14:54:01.594Z,5.00
2022-12-18T14:56:37.148Z,4.97
2022-12-18T14:59:07.046Z,4.87
2022-12-18T15:01:40.567Z,4.93
2022-12-18T15:04:30.493Z,4.65
2022-12-18T15:07:24.578Z,4.80
2022-12-18T15:10:13.241Z,5.04
2022-12-18T15:12:50.653Z,4.78
2022-12-18T15:15:48.161Z,4.67
2022-12-18T15:18:18.875Z,4.79
2022-12-18T15:21:00.706Z,4.95
2022-12-18T15:23:34.011Z,4.94
2022-12-18T15:26:11.477Z,4.86
2022-12-18T15:29:04.284Z,4.64
2022-12-18T15:31:32.765Z,4.68
2022-12-18T15:34:11.358Z,4.68
2022-12-18T15:37:03.235Z,4.33
2022-12-18T15:39:30.394Z,4.35
2022-12-18T15:42:15.906Z,4.49
2022-12-18T15:44:44.694Z,4.43
2022-12-18T15:47:14.011Z,4.45
2022-12-18T15:49:40.974Z,4.40
2022-12-18T15:52:14.498Z,4.30
2022-12-18T15:54:59.998Z,4.34
2022-12-18T15:57:29.385Z,4.36
2022-12-18T16:00:00.386Z,4.45
2022-12-18T16:02:29.025Z,4.37
2022-12-18T16:04:56.116Z,4.64
2022-12-18T16:07:26.056Z,4.60
2022-12-18T16:09:55.444Z,4.61
2022-12-18T16:12:25.381Z,4.51
2022-12-18T16:14:52.351Z,4.51
2022-12-18T16:17:29.730Z,4.26
2022-12-18T16:20:05.655Z,4.43
2022-12-18T16:22:33.205Z,4.46
2022-12-18T16:25:00.156Z,4.47
2022-12-18T16:27:27.314Z,4.32
2022-12-18T16:29:54.387Z,4.38
2022-12-18T16:32:23.620Z,4.28
2022-12-18T16:34:52.015Z,4.24
2022-12-18T16:37:19.141Z,4.24
2022-12-18T16:39:46.839Z,4.21
2022-12-18T16:42:17.902Z,4.14
2022-12-18T16:44:46.674Z,4.25
2022-12-18T16:47:15.701Z,4.39
2022-12-18T16:49:45.385Z,4.16
2022-12-18T16:52:26.822Z,4.09
2022-12-18T16:54:53.880Z,4.13
2022-12-18T16:57:23.541Z,4.18
2022-12-18T16:59:53.103Z,4.07
2022-12-18T17:02:25.937Z,4.05
2022-12-18T17:04:56.221Z,3.93
2022-12-18T17:07:24.103Z,3.94
2022-12-18T17:09:51.319Z,3.81
2022-12-18T17:12:18.494Z,3.91
2022-12-18T17:14:45.438Z,3.79
2022-12-18T17:17:21.382Z,3.78
2022-12-18T17:19:49.675Z,3.72
2022-12-18T17:22:16.620Z,3.74
2022-12-18T17:24:43.680Z,3.85
2022-12-18T17:27:12.189Z,3.95
2022-12-18T17:30:07.089Z,4.06
2022-12-18T17:33:10.987Z,4.01
2022-12-18T17:35:42.397Z,3.93
2022-12-18T17:38:09.494Z,4.00
2022-12-18T17:40:39.706Z,4.02
2022-12-18T17:43:11.585Z,3.88
2022-12-18T17:45:40.198Z,3.91
2022-12-18T17:48:09.251Z,3.82
2022-12-18T17:50:48.562Z,3.92
2022-12-18T17:53:15.535Z,3.63
2022-12-18T17:55:42.535Z,3.71
2022-12-18T17:58:09.830Z,3.58
2022-12-18T18:00:39.310Z,3.63
2022-12-18T18:03:06.792Z,3.76
2022-12-18T18:05:34.022Z,3.51
2022-12-18T18:08:01.075Z,3.54
2022-12-18T18:10:28.167Z,3.52
2022-12-18T18:13:13.599Z,3.53
2022-12-18T18:15:41.159Z,3.58
2022-12-18T18:18:08.597Z,3.69
2022-12-18T18:20:40.845Z,3.80
2022-12-18T18:23:09.343Z,3.89
2022-12-18T18:25:37.741Z,3.79
2022-12-18T18:28:05.093Z,3.90
2022-12-18T18:30:32.406Z,3.71
2022-12-18T18:33:00.914Z,3.57
2022-12-18T18:35:52.992Z,3.55
2022-12-18T18:38:16.189Z,3.47
2022-12-18T18:40:43.288Z,3.27
2022-12-18T18:43:12.375Z,3.44
2022-12-18T18:45:39.286Z,3.19
2022-12-18T18:48:07.526Z,3.28
2022-12-18T18:50:35.606Z,3.20
2022-12-18T18:53:03.166Z,3.22
2022-12-18T18:55:33.686Z,3.31
2022-12-18T18:58:01.975Z,3.13
2022-12-18T19:00:32.604Z,3.42
2022-12-18T19:03:00.871Z,3.07
2022-12-18T19:05:28.148Z,3.06
2022-12-18T19:07:56.408Z,2.79
2022-12-18T19:10:23.464Z,2.93
2022-12-18T19:13:24.927Z,2.85
2022-12-18T19:16:09.534Z,2.79
2022-12-18T19:18:38.638Z,2.68
2022-12-18T19:21:06.984Z,2.58
2022-12-18T19:23:34.742Z,2.71
2022-12-18T19:29:06.190Z,2.68
2022-12-18T19:31:36.366Z,2.79
2022-12-18T19:34:06.748Z,2.79
2022-12-18T19:36:37.270Z,2.76
2022-12-18T19:39:11.235Z,2.57
2022-12-18T19:41:39.926Z,2.78
2022-12-18T19:44:08.675Z,2.72
2022-12-18T19:46:36.243Z,2.60
2022-12-18T19:49:07.762Z,2.57
2022-12-18T19:51:36.218Z,2.63
2022-12-18T19:54:04.502Z,2.54
2022-12-18T19:56:33.637Z,2.55
2022-12-18T19:59:01.401Z,2.57
2022-12-18T20:01:29.679Z,2.37
2022-12-18T20:03:58.066Z,2.44
2022-12-18T20:06:33.183Z,2.53
2022-12-18T20:09:06.357Z,2.51
2022-12-18T20:11:41.200Z,2.53
2022-12-18T20:14:14.393Z,2.39
2022-12-18T20:16:43.415Z,2.46
2022-12-18T20:19:13.068Z,2.36
2022-12-18T20:21:41.644Z,2.30
2022-12-18T20:24:09.095Z,2.20
2022-12-18T20:26:37.306Z,2.12
2022-12-18T20:29:06.859Z,2.18
2022-12-18T20:31:33.944Z,2.10
2022-12-18T20:34:02.605Z,2.11
2022-12-18T20:36:32.853Z,2.18
2022-12-18T20:39:02.613Z,2.20
2022-12-18T20:41:36.052Z,2.24
2022-12-18T20:44:22.977Z,2.12
2022-12-18T20:46:56.855Z,1.88
2022-12-18T20:49:25.914Z,1.70
2022-12-18T20:51:54.642Z,1.73
2022-12-18T20:54:24.131Z,1.85
2022-12-18T20:56:50.898Z,1.79
2022-12-18T20:59:18.321Z,1.19
2022-12-18T21:01:48.277Z,1.45
2022-12-18T21:04:18.010Z,1.49
2022-12-18T21:06:50.943Z,1.31
2022-12-18T21:09:19.537Z,1.29
2022-12-18T21:12:05.060Z,1.41
2022-12-18T21:14:32.541Z,1.30
2022-12-18T21:17:02.903Z,1.48
2022-12-18T21:19:30.093Z,1.45
2022-12-18T21:21:58.016Z,1.56
2022-12-18T21:24:25.604Z,1.27
2022-12-18T21:26:52.633Z,1.31
2022-12-18T21:29:22.751Z,1.20
2022-12-18T21:31:50.879Z,1.30
2022-12-18T21:34:21.608Z,1.32
2022-12-18T21:36:49.780Z,1.30
2022-12-18T21:39:16.892Z,0.91
2022-12-18T21:42:03.078Z,1.03
2022-12-18T21:44:30.846Z,1.10
2022-12-18T21:47:12.299Z,0.91
2022-12-18T21:49:49.381Z,0.71
2022-12-18T21:52:17.257Z,0.89
2022-12-18T21:54:44.391Z,0.71
2022-12-18T21:57:13.985Z,0.96
2022-12-18T21:59:43.734Z,1.03
2022-12-18T22:02:20.047Z,0.79
2022-12-18T22:04:48.473Z,0.90
2022-12-18T22:07:16.861Z,0.84
2022-12-18T22:09:44.320Z,0.91
2022-12-18T22:12:33.698Z,0.89
2022-12-18T22:15:03.329Z,0.78
2022-12-18T22:17:30.938Z,0.93
2022-12-18T22:19:58.062Z,0.87
2022-12-18T22:22:25.532Z,0.94
2022-12-18T22:24:52.628Z,0.74
2022-12-18T22:27:19.718Z,0.78
2022-12-18T22:30:05.300Z,0.90
2022-12-18T22:32:35.264Z,0.98
2022-12-18T22:35:08.292Z,0.86
2022-12-18T22:37:41.332Z,0.97
2022-12-18T22:40:23.713Z,0.98
2022-12-18T22:42:53.223Z,0.94
2022-12-18T22:45:20.756Z,0.93
2022-12-18T22:47:47.775Z,0.93
2022-12-18T22:50:15.063Z,1.07
2022-12-18T22:52:42.423Z,1.04
2022-12-18T22:55:09.568Z,0.94
2022-12-18T22:57:36.722Z,0.96
2022-12-18T23:00:06.479Z,0.88
2022-12-18T23:02:33.532Z,0.68
2022-12-18T23:05:00.674Z,0.88
2022-12-18T23:07:27.766Z,1.11
2022-12-18T23:10:00.783Z,1.20
2022-12-18T23:12:29.859Z,1.28
2022-12-18T23:15:00.041Z,1.33
2022-12-18T23:17:27.078Z,1.36
2022-12-18T23:19:54.101Z,1.47
2022-12-18T23:22:21.251Z,1.14
2022-12-18T23:24:48.234Z,1.38
2022-12-18T23:27:15.402Z,1.38
2022-12-18T23:29:42.563Z,1.38
2022-12-18T23:32:12.358Z,1.20
2022-12-18T23:34:39.518Z,0.98
2022-12-18T23:37:06.605Z,1.03
2022-12-18T23:39:33.579Z,0.94
2022-12-18T23:42:00.935Z,0.56
2022-12-18T23:44:28.262Z,0.99
2022-12-18T23:46:56.270Z,1.14
2022-12-18T23:49:23.406Z,1.07
2022-12-18T23:51:50.620Z,0.85
2022-12-18T23:54:17.731Z,1.14
2022-12-18T23:57:00.771Z,1.13
2022-12-18T23:59:27.717Z,1.29
